Atoka, TN

8:31 AM CST on February 10, 2016 (GMT -0600)
Lochmeade | | Change Station
CLOSE
Current Station
Personal Weather Station
Location: Atoka, TN
Elevation: 413 ft
Nearby Weather Stations
Active Advisory: Flood Advisory

Elev 413 ft 35.43 °N, 89.78 °W | Updated 7 minutes ago

Clear
Clear
28.6 °F
Feels Like 23 °F
N
5.3
Wind Variable Wind from WSW

Today
High -- | Low -- °F
--% Chance of Precip.
Yesterday
High -- | Low -- °F
Precip. -- in
Pressure 30.28 in
Visibility 10.0 miles
Clouds Clear
Windchill 23 °F
Dew Point 10 °F
Humidity 44%
Rainfall 0.00 in
Snow Depth Not available.
6:51 AM 5:35 PM
Waxing Crescent, 5% visible
METAR KNQA 101350Z 29005KT 10SM SKC M04/M11 A3028
Pressure 30.28 in
Visibility 10.0 miles
Clouds Clear
Windchill 23 °F
Dew Point 10 °F
Humidity 44%
Rainfall 0.00 in
Snow Depth Not available.
6:51 AM 5:35 PM
Waxing Crescent, 5% visible
METAR KNQA 101350Z 29005KT 10SM SKC M04/M11 A3028

10-Day Weather Forecast

Almanac

Astronomy

Feb. 10, 2016 Rise Set
Actual Time
Civil Twilight
Nautical Twilight
Astronomical Twilight
Moon
Length of Visible Light
Length of Day
Tomorrow will be .
, % of the Moon is Illuminated

Today's Extremes

State Highs State Lows

Community

WunderPhotos

Upload Photos

1,891,855 photos uploaded!

WunderBlog® & News

Nearby

Air Quality

  Air Quality AQ Index Pollutant
Not available.

Snow Depth

Station Depth Elevation

Earthquake Activity

City Distance Mag. Time & Date
Minimum magnitude displayed is 2.5.

Coastal Water Temperatures

Place Temperature

Stations

Nearby Weather Stations

Station Location Temp. Windchill Dew Point Humidity Wind Precip. Elev Updated Type
                   

Watches & Warnings

Flood Advisory
Issued: 8:32 PM CST Feb. 9, 2016 – National Weather Service

The Flood Advisory continues for
the Mississippi River at Osceola
* until Saturday February 13.
* At 8 PM Tuesday the stage was 23.7 feet.
* Flood stage is 28.0 feet.
* Forecast... the river will rise to near 24.7 feet Saturday February
13.
* At 25.0 feet... in Tennessee, cold creek has backed to near Sunk
Lake Road. Fields and food plots south of Fulton are flooding.
Fields west of John Tully State Wildlife Management Area are
beginning to flood. In Arkansas, Mississippi County roads inside
the levee east of Luxora and south of Rosa are being flooded by
Mill Bayou.


Lat... Lon 3582 8996 3582 8956 3560 8979 3539 8995
      3539 9025